Time;durP1;ratioP1;P1;durP2;ratioP2;P2;SDS_P1;SDS_P2;PMS_P1;PMS_P2;Temp;Humidity;BMP_temperature;BMP_pressure;BME280_temperature;BME280_humidity;BME280_pressure;Samples;Min_cycle;Max_cycle;Signal;HPM_P1;HPM_P2
2022/12/06 05:22:36;;;;;;;10.75;5.10;;;;;;;3.97;100.00;100432.75;5089047;28;20332;-67
2022/12/06 05:25:02;;;;;;;9.30;5.45;;;;;;;3.96;100.00;100437.19;5089122;28;20538;-67
2022/12/06 05:27:27;;;;;;;7.75;4.95;;;;;;;3.96;100.00;100437.19;5089087;28;20042;-67
2022/12/06 05:29:53;;;;;;;10.07;5.40;;;;;;;4.00;100.00;100428.09;5088899;28;20428;-67
2022/12/06 05:32:19;;;;;;;9.45;5.43;;;;;;;4.00;100.00;100421.97;5089165;28;20127;-68
2022/12/06 05:34:44;;;;;;;15.43;5.97;;;;;;;4.01;100.00;100421.00;5089280;28;20117;-68
2022/12/06 05:37:09;;;;;;;12.10;5.28;;;;;;;4.03;100.00;100427.81;5088953;28;20040;-68
2022/12/06 05:39:35;;;;;;;10.48;5.32;;;;;;;4.02;100.00;100426.16;5088709;28;20102;-68
2022/12/06 05:42:01;;;;;;;8.95;5.03;;;;;;;4.06;100.00;100429.38;5088514;28;20111;-68
2022/12/06 05:44:26;;;;;;;12.45;5.90;;;;;;;4.04;100.00;100432.16;5087495;28;20435;-69
2022/12/06 05:46:52;;;;;;;9.05;4.97;;;;;;;4.08;100.00;100430.09;5088817;28;20036;-68
2022/12/06 05:49:17;;;;;;;9.73;5.68;;;;;;;4.11;100.00;100431.63;5088712;28;20029;-67
2022/12/06 05:51:43;;;;;;;14.77;6.45;;;;;;;4.06;100.00;100426.75;5088365;28;20047;-68
2022/12/06 05:54:08;;;;;;;6.47;4.50;;;;;;;4.03;100.00;100425.19;5088534;28;20040;-67
2022/12/06 05:56:34;;;;;;;7.50;4.63;;;;;;;4.06;100.00;100424.09;5088597;28;20089;-67
2022/12/06 05:58:59;;;;;;;11.80;6.03;;;;;;;4.06;100.00;100422.31;5090924;28;20040;-68
2022/12/06 06:01:24;;;;;;;11.25;6.18;;;;;;;4.05;100.00;100430.34;5088803;28;20043;-68
2022/12/06 06:03:50;;;;;;;10.10;5.60;;;;;;;4.08;100.00;100436.19;5088655;28;20043;-67
2022/12/06 06:06:15;;;;;;;8.40;5.68;;;;;;;4.11;100.00;100434.25;5088420;28;20039;-67
2022/12/06 06:08:41;;;;;;;10.07;5.25;;;;;;;4.07;100.00;100441.59;5088339;28;20598;-67
2022/12/06 06:11:06;;;;;;;11.05;6.15;;;;;;;4.09;100.00;100437.84;5087930;28;20063;-67
2022/12/06 06:13:32;;;;;;;8.10;4.75;;;;;;;4.06;100.00;100427.59;5088075;28;20124;-67
2022/12/06 06:15:57;;;;;;;10.27;5.18;;;;;;;4.09;100.00;100432.59;5088316;28;20130;-68
2022/12/06 06:18:23;;;;;;;8.60;5.40;;;;;;;4.11;100.00;100437.75;5088138;28;20396;-67
2022/12/06 06:20:50;;;;;;;7.95;4.80;;;;;;;4.08;100.00;100440.63;5087714;28;20497;-67
2022/12/06 06:23:17;;;;;;;12.30;4.85;;;;;;;4.05;100.00;100436.47;5088014;28;20036;-67
2022/12/06 06:25:42;;;;;;;9.32;5.30;;;;;;;4.09;100.00;100440.50;5087769;28;20036;-67
2022/12/06 06:28:07;;;;;;;8.98;5.20;;;;;;;4.08;100.00;100441.47;5087924;28;20043;-67
2022/12/06 06:30:33;;;;;;;8.60;5.18;;;;;;;4.14;100.00;100434.00;5087431;28;20043;-67
2022/12/06 06:32:58;;;;;;;9.10;4.68;;;;;;;4.14;100.00;100431.38;5079920;28;20497;-67
2022/12/06 06:35:24;;;;;;;9.52;5.25;;;;;;;4.13;100.00;100429.72;5074297;28;20116;-67
2022/12/06 06:37:49;;;;;;;10.35;5.40;;;;;;;4.09;100.00;100439.66;5074202;28;20040;-67
2022/12/06 06:40:15;;;;;;;11.15;5.57;;;;;;;4.09;100.00;100432.59;5073885;28;20040;-67
2022/12/06 06:42:40;;;;;;;11.05;5.30;;;;;;;4.05;100.00;100433.00;5074073;28;20044;-67
2022/12/06 06:45:06;;;;;;;11.68;5.88;;;;;;;4.01;100.00;100432.38;5074008;28;20497;-67
2022/12/06 06:47:32;;;;;;;9.85;5.18;;;;;;;4.00;100.00;100437.78;5072817;28;20041;-68
2022/12/06 06:49:57;;;;;;;7.97;5.38;;;;;;;4.02;100.00;100441.97;5074001;28;20040;-67
2022/12/06 06:52:23;;;;;;;8.68;4.97;;;;;;;3.95;100.00;100435.53;5073755;28;20387;-68
2022/12/06 06:54:48;;;;;;;7.57;4.45;;;;;;;4.01;100.00;100436.81;5073916;28;20096;-67
2022/12/06 06:57:14;;;;;;;11.88;6.57;;;;;;;4.01;100.00;100447.38;5073837;28;20493;-67
2022/12/06 06:59:39;;;;;;;9.32;5.75;;;;;;;4.02;100.00;100443.78;5073887;28;20119;-67
2022/12/06 07:02:04;;;;;;;9.82;5.72;;;;;;;4.04;100.00;100445.34;5055696;28;20478;-67
2022/12/06 07:04:30;;;;;;;13.95;5.85;;;;;;;4.07;100.00;100449.50;5073904;28;20047;-67
2022/12/06 07:06:56;;;;;;;8.15;4.72;;;;;;;4.03;100.00;100448.06;5073777;28;20036;-67
2022/12/06 07:09:22;;;;;;;12.35;6.10;;;;;;;4.06;100.00;100453.94;5072877;28;20052;-67
2022/12/06 07:11:47;;;;;;;9.77;5.40;;;;;;;4.07;100.00;100462.69;5073290;28;20036;-67
2022/12/06 07:14:13;;;;;;;13.02;5.68;;;;;;;4.08;100.00;100456.44;5073637;28;20037;-67
2022/12/06 07:16:38;;;;;;;8.50;4.80;;;;;;;4.06;100.00;100453.09;5073604;28;20048;-67
2022/12/06 07:19:03;;;;;;;11.82;5.63;;;;;;;4.07;100.00;100457.41;5073606;28;20174;-66
2022/12/06 07:21:29;;;;;;;9.27;5.35;;;;;;;4.01;100.00;100453.47;5072961;28;20036;-67
2022/12/06 07:23:54;;;;;;;12.00;5.18;;;;;;;4.06;100.00;100461.84;5073402;28;20032;-67
2022/12/06 07:26:21;;;;;;;8.73;4.93;;;;;;;4.08;100.00;100457.28;5073372;28;20037;-67
2022/12/06 07:28:49;;;;;;;11.00;5.70;;;;;;;4.09;100.00;100463.38;5073350;28;20125;-67
2022/12/06 07:31:18;;;;;;;6.38;4.53;;;;;;;4.13;100.00;100464.81;5071784;28;20037;-67
2022/12/06 07:33:45;;;;;;;9.93;4.88;;;;;;;4.17;100.00;100465.38;5073257;28;20054;-67
2022/12/06 07:36:12;;;;;;;9.25;4.90;;;;;;;4.16;100.00;100459.28;5073033;28;20059;-67
2022/12/06 07:38:37;;;;;;;6.32;4.20;;;;;;;4.15;100.00;100456.78;5073177;28;20475;-67
2022/12/06 07:44:59;;;;;;;7.72;5.07;;;;;;;4.13;100.00;100451.63;5072858;28;20056;-67
2022/12/06 07:46:38;;;;;;;9.60;4.82;;;;;;;4.13;100.00;100453.44;5071536;28;20032;-66
2022/12/06 07:49:04;;;;;;;10.05;4.70;;;;;;;4.12;100.00;100454.41;5072999;28;20449;-66
2022/12/06 07:51:30;;;;;;;8.15;4.30;;;;;;;4.17;100.00;100455.66;5072416;28;20036;-66
2022/12/06 07:53:59;;;;;;;7.95;4.63;;;;;;;4.14;100.00;100460.38;5072733;28;20028;-66
2022/12/06 07:56:25;;;;;;;10.57;5.97;;;;;;;4.12;100.00;100451.78;5072926;28;20520;-66
2022/12/06 07:58:50;;;;;;;8.88;5.07;;;;;;;4.17;100.00;100453.03;5072946;28;20044;-66
2022/12/06 08:01:16;;;;;;;8.32;4.63;;;;;;;4.14;100.00;100455.09;5072515;28;20112;-65
2022/12/06 08:03:42;;;;;;;13.23;5.70;;;;;;;4.21;100.00;100451.00;5072713;28;20035;-66
2022/12/06 08:06:07;;;;;;;10.93;5.30;;;;;;;4.18;100.00;100452.09;5072725;28;20597;-67
2022/12/06 08:08:33;;;;;;;14.20;5.80;;;;;;;4.24;100.00;100451.59;5072386;28;20116;-66
2022/12/06 08:11:00;;;;;;;7.78;5.03;;;;;;;4.25;100.00;100453.25;5072344;28;20413;-66
2022/12/06 08:13:25;;;;;;;6.95;4.65;;;;;;;4.29;100.00;100452.03;5072626;28;20040;-66
2022/12/06 08:15:51;;;;;;;7.28;4.07;;;;;;;4.27;100.00;100453.97;5072342;28;20169;-66
2022/12/06 08:18:16;;;;;;;6.95;3.90;;;;;;;4.26;100.00;100448.81;5072508;28;20128;-66
2022/12/06 08:20:42;;;;;;;6.88;3.88;;;;;;;4.26;100.00;100446.19;5072009;28;20040;-66
2022/12/06 08:23:07;;;;;;;7.15;3.83;;;;;;;4.27;100.00;100453.13;5072274;28;20048;-66
2022/12/06 08:25:32;;;;;;;5.47;3.33;;;;;;;4.32;100.00;100454.41;5072310;28;20032;-66
2022/12/06 08:27:58;;;;;;;6.38;3.60;;;;;;;4.32;100.00;100448.31;5072223;28;20143;-65
2022/12/06 08:30:23;;;;;;;7.30;3.15;;;;;;;4.36;100.00;100447.06;5070662;28;20508;-66
2022/12/06 08:32:48;;;;;;;5.97;3.45;;;;;;;4.30;100.00;100451.09;5072229;28;20059;-67
2022/12/06 08:35:14;;;;;;;6.47;2.83;;;;;;;4.39;100.00;100441.56;5072044;28;20119;-64
2022/12/06 08:37:39;;;;;;;8.48;3.60;;;;;;;4.43;100.00;100455.31;5072108;28;20036;-66
2022/12/06 08:40:05;;;;;;;5.57;3.15;;;;;;;4.45;100.00;100448.13;5071945;28;20453;-65
2022/12/06 08:42:31;;;;;;;6.18;3.58;;;;;;;4.44;100.00;100451.72;5071957;28;20038;-66
2022/12/06 08:44:56;;;;;;;3.58;2.05;;;;;;;4.46;100.00;100460.34;5072146;28;20123;-65
2022/12/06 08:47:22;;;;;;;5.13;2.95;;;;;;;4.46;100.00;100462.97;5070691;28;20036;-67
2022/12/06 08:49:49;;;;;;;7.45;2.88;;;;;;;4.42;100.00;100462.38;5070675;28;20048;-66
2022/12/06 08:52:14;;;;;;;3.85;2.53;;;;;;;4.44;100.00;100460.47;5071532;28;20127;-65
2022/12/06 08:54:40;;;;;;;3.00;2.28;;;;;;;4.48;100.00;100466.31;5071791;28;20040;-66
2022/12/06 08:57:05;;;;;;;4.30;2.55;;;;;;;4.37;100.00;100461.97;5071520;28;20123;-66
2022/12/06 08:59:31;;;;;;;5.82;2.88;;;;;;;4.39;100.00;100467.94;5071790;28;20040;-66
2022/12/06 09:01:56;;;;;;;5.40;2.63;;;;;;;4.38;100.00;100474.19;5071541;28;20033;-66
2022/12/06 09:04:22;;;;;;;4.40;2.40;;;;;;;4.29;100.00;100473.13;5071774;28;20075;-66
2022/12/06 09:06:48;;;;;;;4.90;2.40;;;;;;;4.35;100.00;100471.78;5071626;28;20090;-67
2022/12/06 09:09:16;;;;;;;3.22;2.00;;;;;;;4.34;100.00;100478.03;5071819;28;20428;-67
2022/12/06 09:11:44;;;;;;;4.43;2.60;;;;;;;4.29;100.00;100469.66;5071495;28;20587;-66
2022/12/06 09:14:14;;;;;;;4.03;2.53;;;;;;;4.27;100.00;100474.22;5071848;28;20032;-67
2022/12/06 09:16:42;;;;;;;4.38;2.42;;;;;;;4.29;100.00;100474.91;5071449;28;20043;-66
2022/12/06 09:19:08;;;;;;;3.10;2.20;;;;;;;4.25;100.00;100474.34;5071557;28;20021;-66
2022/12/06 09:21:34;;;;;;;3.95;2.92;;;;;;;4.26;100.00;100472.56;5071193;28;20127;-66
2022/12/06 09:24:00;;;;;;;4.60;2.13;;;;;;;4.21;100.00;100472.94;5071521;28;20115;-66
2022/12/06 09:26:26;;;;;;;4.65;2.65;;;;;;;4.24;100.00;100471.84;5071540;28;20508;-65
2022/12/06 09:28:53;;;;;;;4.57;2.17;;;;;;;4.29;100.00;100475.75;5071642;28;20075;-65
2022/12/06 09:31:19;;;;;;;4.20;2.25;;;;;;;4.34;100.00;100481.50;5071130;28;20036;-64
2022/12/06 09:33:45;;;;;;;6.65;2.67;;;;;;;4.36;100.00;100486.63;5071426;28;20041;-66
2022/12/06 09:36:26;;;;;;;5.57;2.90;;;;;;;4.31;100.00;100486.19;5071403;28;20036;-66
2022/12/06 09:38:54;;;;;;;4.97;2.42;;;;;;;4.36;100.00;100481.34;5071515;28;20120;-66
2022/12/06 09:41:57;;;;;;;3.72;2.47;;;;;;;4.37;100.00;100490.97;5071025;28;20028;-66
2022/12/06 09:44:23;;;;;;;5.22;2.03;;;;;;;4.41;100.00;100492.38;5071407;28;20033;-66
2022/12/06 09:47:20;;;;;;;5.32;2.67;;;;;;;4.46;100.00;100497.28;5071236;28;20024;-65
2022/12/06 09:50:07;;;;;;;3.33;1.90;;;;;;;4.44;100.00;100491.31;5071281;28;20037;-66
2022/12/06 09:53:28;;;;;;;3.40;2.20;;;;;;;4.51;100.00;100495.09;5071088;28;20044;-66
2022/12/06 09:56:05;;;;;;;5.15;2.65;;;;;;;4.47;100.00;100494.50;5028336;28;20061;-65
2022/12/06 09:59:02;;;;;;;3.92;2.50;;;;;;;4.49;100.00;100495.19;5071189;28;20041;-65
2022/12/06 10:01:37;;;;;;;4.35;2.53;;;;;;;4.46;100.00;100489.34;5070988;28;20060;-65
2022/12/06 10:04:15;;;;;;;5.40;3.05;;;;;;;4.42;100.00;100486.13;5071204;28;20083;-66
2022/12/06 10:07:10;;;;;;;6.25;2.88;;;;;;;4.39;100.00;100475.84;5071187;28;20032;-65
2022/12/06 10:10:17;;;;;;;4.55;2.50;;;;;;;4.43;100.00;100484.31;5074991;28;20036;-65
2022/12/06 10:12:48;;;;;;;2.40;1.70;;;;;;;4.44;100.00;100489.50;5032535;28;20136;-65
2022/12/06 10:15:24;;;;;;;3.05;1.80;;;;;;;4.39;100.00;100486.41;5069441;28;20678;-66
2022/12/06 10:18:02;;;;;;;2.63;2.20;;;;;;;4.44;100.00;100476.31;5074759;28;20037;-65
2022/12/06 10:20:30;;;;;;;;;;;;;;;4.48;100.00;100472.44;5074962;28;20175;-65
2022/12/06 10:23:23;;;;;;;5.78;2.67;;;;;;;4.50;100.00;100467.00;5074626;28;19919;-66
2022/12/06 10:26:05;;;;;;;3.35;2.38;;;;;;;4.53;100.00;100459.69;5074518;28;20043;-65
2022/12/06 10:28:43;;;;;;;3.85;2.40;;;;;;;4.49;100.00;100466.19;5074654;28;20124;-65
2022/12/06 10:31:26;;;;;;;4.15;2.78;;;;;;;4.55;100.00;100454.28;5074090;28;20090;-65
2022/12/06 10:34:08;;;;;;;3.55;2.20;;;;;;;4.51;100.00;100458.16;5074468;28;20037;-65
2022/12/06 10:37:16;;;;;;;2.33;1.75;;;;;;;4.55;100.00;100451.63;5074420;28;20029;-65
2022/12/06 10:39:53;;;;;;;4.43;2.70;;;;;;;4.61;100.00;100449.31;5074478;28;20048;-66
2022/12/06 10:42:37;;;;;;;3.75;2.38;;;;;;;4.68;100.00;100454.09;5074099;28;20032;-65
2022/12/06 10:47:02;;;;;;;6.30;2.67;;;;;;;4.67;100.00;100455.06;5074280;28;20029;-65
2022/12/06 10:47:57;;;;;;;2.88;2.22;;;;;;;4.72;100.00;100455.50;5074056;28;20466;-66
2022/12/06 10:50:31;;;;;;;4.93;2.50;;;;;;;4.68;100.00;100449.63;5073704;28;20037;-66
2022/12/06 10:53:07;;;;;;;4.85;2.95;;;;;;;4.75;100.00;100460.50;5074080;28;20041;-65
2022/12/06 10:55:44;;;;;;;4.60;2.58;;;;;;;4.78;100.00;100462.91;5074105;28;20378;-65
2022/12/06 10:58:20;;;;;;;4.55;2.65;;;;;;;4.77;100.00;100459.44;5074008;28;20075;-65
2022/12/06 11:00:54;;;;;;;5.90;2.97;;;;;;;4.78;100.00;100458.44;5073662;28;20032;-66
2022/12/06 11:03:28;;;;;;;4.93;2.67;;;;;;;4.81;100.00;100460.81;5073919;28;20089;-66
2022/12/06 11:06:05;;;;;;;5.45;2.58;;;;;;;4.82;100.00;100464.28;5073808;28;20086;-65
2022/12/06 11:08:39;;;;;;;5.13;2.40;;;;;;;4.90;100.00;100453.94;5073816;28;20032;-66
2022/12/06 11:11:14;;;;;;;4.30;2.20;;;;;;;4.92;100.00;100457.28;5073363;28;20085;-66
2022/12/06 11:13:46;;;;;;;3.72;2.30;;;;;;;4.97;100.00;100463.00;5073712;28;20032;-66
2022/12/06 11:16:23;;;;;;;5.93;2.83;;;;;;;4.88;100.00;100461.97;5073889;28;20051;-65
2022/12/06 11:18:49;;;;;;;4.13;2.58;;;;;;;4.91;100.00;100466.16;5073433;28;20028;-66
2022/12/06 11:21:25;;;;;;;5.53;2.22;;;;;;;4.92;100.00;100467.00;5073303;28;20477;-66
2022/12/06 11:24:02;;;;;;;4.47;2.25;;;;;;;4.87;100.00;100467.38;5073581;28;20501;-66
2022/12/06 11:27:03;;;;;;;5.28;2.65;;;;;;;4.87;100.00;100462.09;5073429;28;20024;-65
2022/12/06 11:29:29;;;;;;;6.25;2.97;;;;;;;4.91;100.00;100463.53;5073284;28;20040;-66
2022/12/06 11:32:09;;;;;;;5.72;2.97;;;;;;;4.95;100.00;100464.06;5073398;28;20036;-65
2022/12/06 11:34:40;;;;;;;4.60;2.33;;;;;;;4.97;100.00;100468.28;5072034;28;20093;-65
2022/12/06 11:37:10;;;;;;;3.63;2.28;;;;;;;5.01;100.00;100463.56;5073234;28;20440;-66
2022/12/06 11:39:35;;;;;;;5.07;2.75;;;;;;;5.02;100.00;100463.44;5073546;28;20032;-67
2022/12/06 11:42:03;;;;;;;4.72;2.97;;;;;;;5.03;100.00;100459.00;5072945;28;20031;-64
2022/12/06 11:44:42;;;;;;;3.92;2.90;;;;;;;5.09;100.00;100456.66;5073371;28;20119;-66
2022/12/06 11:47:13;;;;;;;4.82;3.05;;;;;;;4.98;100.00;100462.03;5073185;28;20048;-66
2022/12/06 11:49:42;;;;;;;5.03;3.28;;;;;;;4.95;100.00;100457.00;5073343;28;20029;-65
2022/12/06 11:52:14;;;;;;;7.38;3.08;;;;;;;4.87;100.00;100446.25;5072659;28;20035;-66
2022/12/06 11:54:50;;;;;;;4.80;2.70;;;;;;;4.78;100.00;100452.34;5073075;28;20042;-65
2022/12/06 11:57:21;;;;;;;7.85;3.25;;;;;;;4.85;100.00;100448.22;5072838;28;20040;-66
2022/12/06 12:00:06;;;;;;;6.00;2.70;;;;;;;4.90;100.00;100453.94;5072848;28;20047;-64
2022/12/06 12:02:38;;;;;;;6.05;2.67;;;;;;;4.95;100.00;100451.72;5072932;28;20086;-65
2022/12/06 12:05:37;;;;;;;5.80;2.70;;;;;;;4.95;100.00;100443.78;5072776;28;20056;-65
2022/12/06 12:08:15;;;;;;;5.00;2.70;;;;;;;4.96;100.00;100447.31;5069938;28;20056;-65
2022/12/06 12:10:45;;;;;;;4.18;2.65;;;;;;;4.94;100.00;100450.03;5072305;28;20033;-65
2022/12/06 12:16:16;;;;;;;5.18;2.85;;;;;;;4.84;100.00;100442.09;5072469;28;20056;-65
2022/12/06 12:18:50;;;;;;;4.63;2.17;;;;;;;4.85;100.00;100440.28;5072129;28;20512;-65
2022/12/06 12:21:16;;;;;;;3.55;2.65;;;;;;;4.83;100.00;100442.22;5071814;28;20689;-65
2022/12/06 12:23:46;;;;;;;5.82;2.78;;;;;;;4.89;100.00;100433.78;5072346;28;20140;-66
2022/12/06 12:26:13;;;;;;;6.22;2.83;;;;;;;4.91;100.00;100431.84;5072181;28;20040;-64
2022/12/06 12:28:40;;;;;;;4.40;2.83;;;;;;;4.87;100.00;100436.53;5072235;28;20044;-67
2022/12/06 12:31:21;;;;;;;4.53;2.72;;;;;;;4.93;100.00;100440.47;5071289;28;20127;-66
2022/12/06 12:33:47;;;;;;;5.32;2.75;;;;;;;4.92;100.00;100443.25;5070985;28;20043;-65
2022/12/06 12:36:14;;;;;;;5.50;2.30;;;;;;;4.97;100.00;100435.75;5072097;28;20417;-63
2022/12/06 12:38:42;;;;;;;5.53;2.58;;;;;;;5.04;100.00;100435.09;5072112;28;20485;-64
2022/12/06 12:41:38;;;;;;;6.00;3.20;;;;;;;5.06;100.00;100435.78;5071678;28;20064;-65
2022/12/06 12:44:13;;;;;;;5.13;2.45;;;;;;;5.09;100.00;100437.34;5067707;28;20094;-64
2022/12/06 12:46:43;;;;;;;8.25;3.28;;;;;;;5.04;100.00;100431.63;5071903;28;20089;-66
2022/12/06 12:49:22;;;;;;;4.53;2.50;;;;;;;5.02;100.00;100433.53;5072172;28;20131;-67
2022/12/06 12:51:47;;;;;;;3.88;2.55;;;;;;;4.99;100.00;100437.28;5071521;28;20045;-65
2022/12/06 12:54:29;;;;;;;4.07;2.10;;;;;;;5.06;100.00;100432.31;5071886;28;20043;-67
2022/12/06 12:56:55;;;;;;;4.15;2.47;;;;;;;5.12;100.00;100437.91;5071948;28;20047;-65
2022/12/06 12:59:24;;;;;;;4.65;2.70;;;;;;;5.18;100.00;100434.72;5071880;28;20077;-66
2022/12/06 13:01:59;;;;;;;3.95;2.38;;;;;;;5.27;100.00;100429.59;5070272;28;20063;-66
2022/12/06 13:04:42;;;;;;;3.40;2.15;;;;;;;5.29;100.00;100427.69;5072013;28;20052;-65
2022/12/06 13:07:17;;;;;;;4.72;2.63;;;;;;;5.25;100.00;100434.19;5071791;28;20044;-66
2022/12/06 13:10:03;;;;;;;5.07;2.80;;;;;;;5.34;100.00;100425.44;5071907;28;20190;-64
2022/12/06 13:12:34;;;;;;;6.68;2.60;;;;;;;5.40;100.00;100430.19;5071561;28;20094;-67
2022/12/06 13:15:06;;;;;;;5.60;3.25;;;;;;;5.40;100.00;100431.03;5071902;28;20036;-65
2022/12/06 13:17:34;;;;;;;5.30;2.35;;;;;;;5.41;100.00;100426.56;5071670;28;20040;-67
2022/12/06 13:20:01;;;;;;;7.30;2.70;;;;;;;5.25;100.00;100429.75;5071587;28;20040;-69
2022/12/06 13:22:30;;;;;;;6.00;3.05;;;;;;;5.27;100.00;100419.88;5071529;28;20029;-67
2022/12/06 13:25:02;;;;;;;5.03;3.08;;;;;;;5.29;100.00;100422.41;5071802;28;20077;-66
2022/12/06 13:27:33;;;;;;;4.18;2.88;;;;;;;5.27;100.00;100430.44;5071913;28;20045;-66
2022/12/06 13:30:20;;;;;;;6.65;3.30;;;;;;;5.18;100.00;100428.59;5071483;28;20509;-66
2022/12/06 13:33:20;;;;;;;3.47;2.65;;;;;;;5.17;100.00;100425.13;5071626;28;20079;-65
2022/12/06 13:36:12;;;;;;;4.43;2.38;;;;;;;5.19;100.00;100427.63;5049194;28;20501;-67
2022/12/06 13:38:39;;;;;;;5.65;3.20;;;;;;;5.13;100.00;100425.53;5071701;28;20534;-66
2022/12/06 13:42:16;;;;;;;5.47;3.23;;;;;;;5.11;100.00;100433.59;5071206;28;20066;-66
2022/12/06 13:44:52;;;;;;;4.65;3.08;;;;;;;5.10;100.00;100428.44;5075112;28;20037;-66
2022/12/06 13:47:27;;;;;;;8.50;4.00;;;;;;;5.12;100.00;100431.78;5069829;28;20047;-67
2022/12/06 13:50:00;;;;;;;6.43;3.22;;;;;;;5.11;100.00;100430.94;5075406;28;20032;-66
2022/12/06 13:52:40;;;;;;;5.53;3.70;;;;;;;5.05;100.00;100428.84;5075284;28;20044;-66
2022/12/06 13:55:24;;;;;;;6.13;3.53;;;;;;;5.10;100.00;100429.28;5075349;28;20104;-68
2022/12/06 13:57:50;;;;;;;6.90;3.67;;;;;;;5.06;100.00;100427.88;5075318;28;20029;-65
2022/12/06 14:00:30;;;;;;;4.40;3.08;;;;;;;5.04;100.00;100424.53;5074896;28;20024;-65
2022/12/06 14:03:12;;;;;;;7.05;3.47;;;;;;;5.05;100.00;100430.66;5074292;28;20421;-67
2022/12/06 14:06:03;;;;;;;5.22;2.90;;;;;;;5.03;100.00;100422.03;5075282;28;20039;-65
2022/12/06 14:08:33;;;;;;;6.22;3.22;;;;;;;5.01;100.00;100416.88;5075128;28;20036;-66
2022/12/06 14:11:11;;;;;;;6.03;3.17;;;;;;;4.94;100.00;100412.25;5074788;28;20047;-66
2022/12/06 14:13:37;;;;;;;;;;;;;;;4.88;100.00;100413.63;5075546;28;20077;-65
2022/12/06 14:16:04;;;;;;;6.25;3.00;;;;;;;4.87;100.00;100417.22;5075044;28;19916;-66
2022/12/06 14:18:32;;;;;;;6.50;3.20;;;;;;;4.87;100.00;100414.59;5074887;28;20058;-66
2022/12/06 14:20:57;;;;;;;7.93;3.30;;;;;;;4.83;100.00;100421.94;5074506;28;20037;-66
2022/12/06 14:23:31;;;;;;;5.30;3.17;;;;;;;4.89;100.00;100412.66;5074623;28;20041;-67
2022/12/06 14:26:21;;;;;;;8.70;3.83;;;;;;;4.87;100.00;100417.22;5074635;28;20037;-67
2022/12/06 14:28:48;;;;;;;5.78;3.20;;;;;;;4.89;100.00;100410.03;5057007;28;20382;-66
2022/12/06 14:31:42;;;;;;;6.75;3.90;;;;;;;4.85;100.00;100406.81;5074226;28;20132;-65
2022/12/06 14:34:23;;;;;;;7.15;3.58;;;;;;;4.90;100.00;100417.81;5074461;28;20048;-65
2022/12/06 14:36:49;;;;;;;8.20;3.50;;;;;;;4.85;100.00;100413.91;5074502;28;20076;-66
2022/12/06 14:39:18;;;;;;;4.68;2.92;;;;;;;4.87;100.00;100414.59;5074366;28;20075;-66
2022/12/06 14:44:36;;;;;;;4.72;3.25;;;;;;;4.79;100.00;100414.41;5064447;28;20472;-65
2022/12/06 14:47:02;;;;;;;7.00;3.50;;;;;;;4.82;100.00;100417.63;5062386;28;20039;-65
2022/12/06 14:52:22;;;;;;;5.32;3.05;;;;;;;4.78;100.00;100423.31;5045444;28;20122;-65
2022/12/06 14:54:50;;;;;;;5.07;3.00;;;;;;;4.70;100.00;100404.66;5053760;28;20043;-66
2022/12/06 14:57:26;;;;;;;6.68;3.50;;;;;;;4.72;100.00;100422.03;5053982;28;20033;-66
2022/12/06 14:59:54;;;;;;;4.45;2.80;;;;;;;4.73;100.00;100420.22;5054058;28;20470;-68
2022/12/06 15:02:28;;;;;;;5.28;3.30;;;;;;;4.75;100.00;100415.63;5053876;28;20060;-63
2022/12/06 15:04:54;;;;;;;4.85;3.20;;;;;;;4.75;100.00;100413.84;5053968;28;20505;-65
2022/12/06 15:07:40;;;;;;;5.53;3.60;;;;;;;4.69;100.00;100411.72;5053810;28;20040;-65
2022/12/06 15:10:08;;;;;;;5.00;3.90;;;;;;;4.68;100.00;100410.06;5053737;28;20068;-66
2022/12/06 15:12:54;;;;;;;4.95;3.40;;;;;;;4.68;100.00;100406.59;5053638;28;20379;-64
2022/12/06 15:15:31;;;;;;;5.25;3.22;;;;;;;4.65;100.00;100407.69;5053757;28;20041;-67
2022/12/06 15:18:10;;;;;;;5.88;3.10;;;;;;;4.66;100.00;100408.53;5053916;28;20079;-65
2022/12/06 15:20:36;;;;;;;5.20;3.53;;;;;;;4.62;100.00;100400.03;5053395;28;20065;-65
2022/12/06 15:23:01;;;;;;;5.80;3.00;;;;;;;4.65;100.00;100406.84;5053639;28;20041;-68
2022/12/06 15:25:26;;;;;;;5.90;3.60;;;;;;;4.60;100.00;100409.88;5052262;28;20182;-67
2022/12/06 15:27:52;;;;;;;6.70;3.92;;;;;;;4.61;100.00;100408.91;5053533;28;20060;-66
2022/12/06 15:30:17;;;;;;;5.28;3.05;;;;;;;4.54;100.00;100400.69;5053141;28;20497;-65
2022/12/06 15:32:42;;;;;;;14.93;6.50;;;;;;;4.62;100.00;100408.78;5052185;28;20044;-66
2022/12/06 15:35:16;;;;;;;6.65;3.65;;;;;;;4.66;100.00;100411.16;5053422;28;20033;-67
2022/12/06 15:37:42;;;;;;;5.47;2.88;;;;;;;4.60;100.00;100405.44;5053466;28;20036;-68
2022/12/06 15:40:09;;;;;;;3.95;3.25;;;;;;;4.62;100.00;100400.84;5053201;28;20051;-67
2022/12/06 15:42:34;;;;;;;6.47;3.27;;;;;;;4.71;100.00;100406.34;5053146;28;20032;-67
2022/12/06 15:45:00;;;;;;;7.28;3.05;;;;;;;4.62;100.00;100403.50;5053390;28;20287;-67
2022/12/06 15:47:25;;;;;;;5.75;3.33;;;;;;;4.67;100.00;100404.91;5052101;28;20045;-66
2022/12/06 15:49:52;;;;;;;5.18;3.38;;;;;;;4.66;100.00;100406.72;5053363;28;20037;-67
2022/12/06 15:52:23;;;;;;;6.27;3.43;;;;;;;4.62;100.00;100403.50;5052870;28;20102;-66
2022/12/06 15:54:49;;;;;;;8.80;3.53;;;;;;;4.64;100.00;100411.31;5053128;28;20290;-66
2022/12/06 15:57:14;;;;;;;5.30;3.42;;;;;;;4.63;100.00;100412.28;5052992;28;20135;-66
2022/12/06 15:59:39;;;;;;;7.57;3.50;;;;;;;4.66;100.00;100422.56;5051647;28;20036;-66
2022/12/06 16:02:14;;;;;;;6.60;3.65;;;;;;;4.65;100.00;100418.25;5052762;28;20551;-66
2022/12/06 16:04:40;;;;;;;4.97;3.13;;;;;;;4.66;100.00;100419.91;5052518;28;20048;-65
2022/12/06 16:07:05;;;;;;;4.05;2.85;;;;;;;4.63;100.00;100423.66;5052382;28;20401;-66
2022/12/06 16:09:31;;;;;;;4.40;2.83;;;;;;;4.55;100.00;100420.81;5052598;28;20056;-66
2022/12/06 16:11:56;;;;;;;5.07;2.92;;;;;;;4.57;100.00;100426.81;5052434;28;20108;-66
2022/12/06 16:14:22;;;;;;;5.63;3.45;;;;;;;4.58;100.00;100428.50;5052707;28;20460;-66
2022/12/06 16:16:47;;;;;;;4.47;3.30;;;;;;;4.56;100.00;100416.38;5052772;28;20048;-66
2022/12/06 16:19:12;;;;;;;5.00;3.00;;;;;;;4.57;100.00;100425.97;5051772;28;20118;-66
2022/12/06 16:21:53;;;;;;;6.95;4.28;;;;;;;4.53;100.00;100420.13;5052254;28;20163;-66
2022/12/06 16:24:18;;;;;;;6.72;3.10;;;;;;;4.52;100.00;100422.91;5052535;28;20118;-66
2022/12/06 16:26:44;;;;;;;7.28;3.55;;;;;;;4.47;100.00;100420.63;5052511;28;20473;-66
2022/12/06 16:29:19;;;;;;;5.68;3.08;;;;;;;4.50;100.00;100424.81;5052575;28;20432;-66
2022/12/06 16:31:45;;;;;;;5.28;3.30;;;;;;;4.48;100.00;100421.47;5052355;28;20037;-67
2022/12/06 16:34:12;;;;;;;5.95;3.40;;;;;;;4.47;100.00;100425.91;5052330;28;20033;-66
2022/12/06 16:36:59;;;;;;;7.40;3.85;;;;;;;4.48;100.00;100422.31;5052173;28;20171;-66
2022/12/06 16:39:25;;;;;;;7.00;3.10;;;;;;;4.48;100.00;100414.38;5052251;28;20041;-66
2022/12/06 16:41:50;;;;;;;4.00;2.63;;;;;;;4.51;100.00;100427.34;5051935;28;20037;-66
2022/12/06 16:44:15;;;;;;;5.32;3.50;;;;;;;4.50;100.00;100420.41;5052271;28;20123;-65
2022/12/06 16:46:41;;;;;;;8.95;3.75;;;;;;;4.53;100.00;100421.94;5052101;28;20048;-66
2022/12/06 16:49:28;;;;;;;8.50;3.88;;;;;;;4.52;100.00;100428.16;5051895;28;20048;-66
2022/12/06 16:51:53;;;;;;;5.22;3.58;;;;;;;4.50;100.00;100420.41;5051711;28;20037;-66
2022/12/06 16:54:19;;;;;;;6.88;3.35;;;;;;;4.49;100.00;100428.41;5051962;28;20455;-67
2022/12/06 16:56:44;;;;;;;6.07;3.63;;;;;;;4.46;100.00;100412.84;5051824;28;20037;-67
2022/12/06 16:59:14;;;;;;;6.57;4.18;;;;;;;4.50;100.00;100430.94;5051916;28;20037;-67
2022/12/06 17:01:48;;;;;;;6.57;3.58;;;;;;;4.50;100.00;100430.09;5051528;28;20039;-67
2022/12/06 17:04:14;;;;;;;9.48;3.97;;;;;;;4.51;100.00;100437.88;5051923;28;20040;-67
2022/12/06 17:06:39;;;;;;;5.40;2.95;;;;;;;4.52;100.00;100429.00;5051771;28;20094;-67
2022/12/06 17:09:05;;;;;;;5.07;3.53;;;;;;;4.53;100.00;100427.19;5051742;28;20037;-67
2022/12/06 17:14:21;;;;;;;4.40;3.03;;;;;;;4.54;100.00;100424.44;5051558;28;20049;-67
2022/12/06 17:16:46;;;;;;;5.65;3.75;;;;;;;4.55;100.00;100426.09;5051525;28;20021;-67
2022/12/06 17:19:17;;;;;;;4.95;3.60;;;;;;;4.53;100.00;100427.19;5051626;28;20079;-67